SDM6289 UUEE-UHMM
Flight info
| Callsign | SDM6289 |
|---|---|
| Flight time | N/A |
| Altitude | 35000 |
| Route | RILPO3J RILPO T753 NARUD DCT ULKAM M131 LABAR T411 OLEGA/K0898F370 A812 LANAR LANAR5K |
| Aircraft | B77W/H-SDE1E2E3FGHIJ2J3J4J5M1RWXY/LB1D1 |
Departure
| Time | N/A |
|---|---|
| Airport | Sheremetyevo International Airport (UUEE) |
Arrival
| Time | 2026-04-30 22:55 |
|---|---|
| Airport | Sokol Airport (UHMM) |
| Time | Latitude | Longitude | Altitude | Speed | Heading |
|---|---|---|---|---|---|
| 2026-04-30 17:39 | 64.93518 | 49.55453 | 32964 ft | 498 kts | 32° |
| 2026-04-30 17:42 | 65.22228 | 50.01559 | 32954 ft | 499 kts | 33° |
| 2026-04-30 17:43 | 65.36169 | 50.26090 | 32955 ft | 496 kts | 38° |
| 2026-04-30 17:44 | 65.52069 | 50.57791 | 32934 ft | 496 kts | 38° |
| 2026-04-30 17:47 | 65.75977 | 51.06039 | 32924 ft | 500 kts | 39° |
| 2026-04-30 17:48 | 65.94600 | 51.44482 | 32909 ft | 500 kts | 39° |
| 2026-04-30 17:50 | 66.15705 | 51.88979 | 32913 ft | 500 kts | 40° |
| 2026-04-30 17:52 | 66.31471 | 52.22888 | 32906 ft | 500 kts | 40° |
| 2026-04-30 17:54 | 66.54900 | 52.74377 | 32898 ft | 498 kts | 41° |
| 2026-04-30 17:56 | 66.75577 | 53.20956 | 32901 ft | 500 kts | 41° |
| 2026-04-30 17:58 | 66.91041 | 53.56515 | 32904 ft | 500 kts | 42° |
| 2026-04-30 18:00 | 67.11516 | 54.04591 | 32905 ft | 500 kts | 43° |
| 2026-04-30 18:01 | 67.23411 | 54.33056 | 32908 ft | 500 kts | 43° |
| 2026-04-30 18:02 | 67.38627 | 54.70064 | 32907 ft | 499 kts | 43° |
| 2026-04-30 18:04 | 67.53686 | 55.07367 | 32916 ft | 499 kts | 44° |
| 2026-04-30 18:06 | 67.73705 | 55.58043 | 32915 ft | 500 kts | 44° |
| 2026-04-30 18:08 | 67.91113 | 56.03153 | 32914 ft | 500 kts | 45° |
| 2026-04-30 18:10 | 68.10819 | 56.55443 | 32920 ft | 499 kts | 45° |
| 2026-04-30 18:11 | 68.27908 | 57.01892 | 32911 ft | 500 kts | 45° |
| 2026-04-30 18:13 | 68.40084 | 57.35635 | 32915 ft | 501 kts | 45° |
| 2026-04-30 18:14 | 68.52164 | 57.69663 | 32908 ft | 501 kts | 46° |
| 2026-04-30 18:15 | 68.66591 | 58.11047 | 32911 ft | 500 kts | 46° |
| 2026-04-30 18:16 | 68.76127 | 58.38862 | 32911 ft | 500 kts | 46° |
| 2026-04-30 18:17 | 68.80886 | 58.52881 | 32901 ft | 500 kts | 46° |
| 2026-04-30 18:18 | 68.88003 | 58.74026 | 32904 ft | 500 kts | 47° |
| 2026-04-30 18:18 | 68.92733 | 58.88197 | 32912 ft | 500 kts | 47° |
| 2026-04-30 18:19 | 68.97461 | 59.02458 | 32902 ft | 500 kts | 47° |
| 2026-04-30 18:19 | 69.02152 | 59.16705 | 32905 ft | 500 kts | 47° |
| 2026-04-30 18:20 | 69.06846 | 59.31060 | 32905 ft | 501 kts | 47° |
| 2026-04-30 18:20 | 69.11534 | 59.45491 | 32896 ft | 501 kts | 47° |
| 2026-04-30 18:21 | 69.16205 | 59.59972 | 32901 ft | 501 kts | 47° |
| 2026-04-30 18:21 | 69.20877 | 59.74558 | 32914 ft | 501 kts | 48° |
| 2026-04-30 18:22 | 69.25496 | 59.89078 | 32913 ft | 500 kts | 48° |
| 2026-04-30 18:22 | 69.32450 | 60.11124 | 32909 ft | 500 kts | 48° |
| 2026-04-30 18:23 | 69.37066 | 60.25890 | 32909 ft | 500 kts | 48° |
| 2026-04-30 18:23 | 69.41667 | 60.40710 | 32905 ft | 500 kts | 49° |
| 2026-04-30 18:24 | 69.48560 | 60.63110 | 32918 ft | 500 kts | 49° |
| 2026-04-30 18:25 | 69.53109 | 60.78024 | 32908 ft | 500 kts | 49° |
| 2026-04-30 18:25 | 69.59946 | 61.00639 | 32921 ft | 500 kts | 49° |
| 2026-04-30 18:26 | 69.66753 | 61.23400 | 32916 ft | 500 kts | 49° |
| 2026-04-30 18:27 | 69.73509 | 61.46231 | 32911 ft | 500 kts | 50° |
| 2026-04-30 18:28 | 69.80308 | 61.69121 | 32923 ft | 500 kts | 49° |
| 2026-04-30 18:28 | 69.87168 | 61.91812 | 32907 ft | 500 kts | 49° |
| 2026-04-30 18:29 | 69.96262 | 62.22402 | 32908 ft | 500 kts | 49° |
| 2026-04-30 18:30 | 70.05376 | 62.53078 | 32921 ft | 500 kts | 49° |
| 2026-04-30 18:31 | 70.12157 | 62.76238 | 32915 ft | 499 kts | 50° |
| 2026-04-30 18:32 | 70.18912 | 62.99580 | 32914 ft | 499 kts | 50° |
| 2026-04-30 18:33 | 70.25642 | 63.23095 | 32914 ft | 499 kts | 50° |
| 2026-04-30 18:33 | 70.32320 | 63.46685 | 32918 ft | 499 kts | 50° |
| 2026-04-30 18:34 | 70.38965 | 63.70424 | 32921 ft | 498 kts | 51° |
| 2026-04-30 18:35 | 70.43373 | 63.86319 | 32912 ft | 497 kts | 51° |
| 2026-04-30 18:35 | 70.47779 | 64.02325 | 32917 ft | 497 kts | 51° |
| 2026-04-30 18:36 | 70.54305 | 64.26260 | 32922 ft | 497 kts | 51° |
| 2026-04-30 18:37 | 70.60833 | 64.50473 | 32918 ft | 497 kts | 52° |
| 2026-04-30 18:37 | 70.65157 | 64.66668 | 32926 ft | 497 kts | 52° |
| 2026-04-30 18:38 | 70.69460 | 64.82905 | 32927 ft | 497 kts | 52° |
| 2026-04-30 18:38 | 70.73771 | 64.99295 | 32928 ft | 497 kts | 52° |
| 2026-04-30 18:39 | 70.78060 | 65.15733 | 32926 ft | 497 kts | 52° |
| 2026-04-30 18:39 | 70.82335 | 65.32241 | 32928 ft | 497 kts | 52° |
| 2026-04-30 18:40 | 70.86587 | 65.48795 | 32931 ft | 496 kts | 53° |
| 2026-04-30 18:40 | 70.90837 | 65.65454 | 32931 ft | 496 kts | 53° |
| 2026-04-30 18:41 | 70.94771 | 65.82642 | 32924 ft | 495 kts | 61° |
| 2026-04-30 18:41 | 70.98034 | 66.01168 | 32931 ft | 494 kts | 63° |
| 2026-04-30 18:42 | 71.01231 | 66.19836 | 32935 ft | 494 kts | 63° |
| 2026-04-30 18:42 | 71.06036 | 66.47815 | 32939 ft | 495 kts | 63° |
| 2026-04-30 18:45 | 71.23449 | 67.51611 | 32943 ft | 493 kts | 64° |
| 2026-04-30 18:46 | 71.26544 | 67.70637 | 32946 ft | 493 kts | 64° |
| 2026-04-30 18:46 | 71.29625 | 67.89753 | 32946 ft | 493 kts | 64° |
| 2026-04-30 18:47 | 71.32664 | 68.08790 | 32943 ft | 493 kts | 64° |
| 2026-04-30 18:47 | 71.35698 | 68.27975 | 32951 ft | 492 kts | 65° |
| 2026-04-30 18:48 | 71.38709 | 68.47200 | 32949 ft | 492 kts | 65° |
| 2026-04-30 18:48 | 71.41695 | 68.66441 | 32953 ft | 490 kts | 65° |
| 2026-04-30 18:49 | 71.44653 | 68.85697 | 32952 ft | 489 kts | 65° |
| 2026-04-30 18:49 | 71.47095 | 69.01735 | 32954 ft | 488 kts | 65° |
| 2026-04-30 18:50 | 71.50005 | 69.21012 | 32951 ft | 487 kts | 65° |
| 2026-04-30 18:50 | 71.52889 | 69.40309 | 32954 ft | 486 kts | 66° |
| 2026-04-30 18:51 | 71.55753 | 69.59659 | 32961 ft | 486 kts | 66° |
| 2026-04-30 18:51 | 71.58601 | 69.79097 | 32961 ft | 487 kts | 66° |
| 2026-04-30 18:52 | 71.61418 | 69.98514 | 32963 ft | 487 kts | 66° |
| 2026-04-30 18:52 | 71.64230 | 70.18088 | 32961 ft | 487 kts | 66° |
| 2026-04-30 18:53 | 71.67017 | 70.37683 | 32966 ft | 487 kts | 67° |
| 2026-04-30 18:53 | 71.69775 | 70.57270 | 32965 ft | 487 kts | 67° |
| 2026-04-30 18:54 | 71.72522 | 70.76986 | 32984 ft | 487 kts | 67° |
| 2026-04-30 18:54 | 71.75248 | 70.96752 | 32969 ft | 487 kts | 67° |
| 2026-04-30 18:55 | 71.77962 | 71.16636 | 33122 ft | 489 kts | 68° |
| 2026-04-30 18:55 | 71.80655 | 71.36572 | 33753 ft | 488 kts | 68° |
| 2026-04-30 18:55 | 71.81993 | 71.46559 | 34040 ft | 488 kts | 68° |
| 2026-04-30 18:56 | 71.84638 | 71.66448 | 34507 ft | 488 kts | 68° |
| 2026-04-30 18:56 | 71.85961 | 71.76479 | 34724 ft | 488 kts | 68° |
| 2026-04-30 18:56 | 71.87280 | 71.86534 | 34882 ft | 489 kts | 68° |
| 2026-04-30 18:57 | 71.89914 | 72.06773 | 34966 ft | 491 kts | 68° |
| 2026-04-30 18:57 | 71.92526 | 72.27061 | 34973 ft | 489 kts | 68° |
| 2026-04-30 18:58 | 71.96378 | 72.57390 | 34986 ft | 486 kts | 69° |
| 2026-04-30 18:59 | 72.00161 | 72.87677 | 34990 ft | 486 kts | 69° |
| 2026-04-30 19:00 | 72.05162 | 73.28504 | 34990 ft | 488 kts | 69° |
| 2026-04-30 19:01 | 72.10074 | 73.69512 | 34998 ft | 489 kts | 70° |
| 2026-04-30 19:02 | 72.13714 | 74.00530 | 34996 ft | 489 kts | 70° |
| 2026-04-30 19:03 | 72.18493 | 74.42085 | 34991 ft | 488 kts | 71° |
| 2026-04-30 19:04 | 72.23156 | 74.83613 | 35004 ft | 487 kts | 71° |
| 2026-04-30 19:05 | 72.27738 | 75.25417 | 35011 ft | 486 kts | 71° |
| 2026-04-30 19:06 | 72.32219 | 75.67284 | 35008 ft | 486 kts | 72° |
| 2026-04-30 19:06 | 72.35510 | 75.98752 | 35012 ft | 486 kts | 72° |
| 2026-04-30 19:07 | 72.38759 | 76.30420 | 35012 ft | 486 kts | 72° |
| 2026-04-30 19:08 | 72.43016 | 76.72853 | 35020 ft | 486 kts | 73° |
| 2026-04-30 19:09 | 72.46141 | 77.04725 | 35024 ft | 486 kts | 73° |
| 2026-04-30 19:09 | 72.48200 | 77.26072 | 35021 ft | 486 kts | 73° |
| 2026-04-30 19:10 | 72.52257 | 77.69000 | 35020 ft | 486 kts | 74° |
| 2026-04-30 19:11 | 72.55221 | 78.01126 | 35018 ft | 486 kts | 74° |
| 2026-04-30 19:12 | 72.57178 | 78.22705 | 35032 ft | 485 kts | 74° |
| 2026-04-30 19:12 | 72.59112 | 78.44339 | 35040 ft | 485 kts | 75° |
| 2026-04-30 19:13 | 72.62887 | 78.87478 | 35023 ft | 485 kts | 75° |
| 2026-04-30 19:14 | 72.64745 | 79.09175 | 35029 ft | 485 kts | 75° |
| 2026-04-30 19:14 | 72.66584 | 79.30983 | 35034 ft | 485 kts | 75° |
| 2026-04-30 19:15 | 72.68396 | 79.52779 | 35041 ft | 484 kts | 76° |
| 2026-04-30 19:15 | 72.71051 | 79.85336 | 35040 ft | 483 kts | 76° |
| 2026-04-30 19:16 | 72.72798 | 80.07167 | 35041 ft | 483 kts | 76° |
| 2026-04-30 19:17 | 72.75378 | 80.40045 | 35043 ft | 483 kts | 76° |
| 2026-04-30 19:17 | 72.77889 | 80.72817 | 35047 ft | 483 kts | 77° |
| 2026-04-30 19:18 | 72.80362 | 81.05889 | 35047 ft | 484 kts | 77° |
| 2026-04-30 19:19 | 72.81982 | 81.27999 | 35054 ft | 484 kts | 77° |
| 2026-04-30 19:19 | 72.84354 | 81.61065 | 35061 ft | 484 kts | 77° |
| 2026-04-30 19:20 | 72.85910 | 81.83237 | 35056 ft | 484 kts | 78° |
| 2026-04-30 19:21 | 72.88202 | 82.16605 | 35062 ft | 483 kts | 79° |
| 2026-04-30 19:22 | 72.91172 | 82.61202 | 35063 ft | 483 kts | 79° |
| 2026-04-30 19:23 | 72.95437 | 83.28265 | 35082 ft | 484 kts | 79° |
| 2026-04-30 19:24 | 72.97492 | 83.62031 | 35082 ft | 484 kts | 80° |
| 2026-04-30 19:25 | 73.00785 | 84.18305 | 35089 ft | 484 kts | 80° |
| 2026-04-30 19:26 | 73.03313 | 84.63584 | 35104 ft | 484 kts | 81° |
| 2026-04-30 19:27 | 73.05143 | 84.97600 | 35099 ft | 484 kts | 81° |
| 2026-04-30 19:28 | 73.06906 | 85.31506 | 35107 ft | 484 kts | 81° |
| 2026-04-30 19:29 | 73.09182 | 85.77058 | 35112 ft | 484 kts | 82° |
| 2026-04-30 19:30 | 73.11357 | 86.22763 | 35108 ft | 484 kts | 83° |
| 2026-04-30 19:31 | 73.13432 | 86.68531 | 35123 ft | 484 kts | 82° |
| 2026-04-30 19:31 | 73.14914 | 87.02813 | 35125 ft | 484 kts | 83° |
| 2026-04-30 19:32 | 73.15873 | 87.25755 | 35128 ft | 483 kts | 83° |
| 2026-04-30 19:32 | 73.16808 | 87.48747 | 35125 ft | 483 kts | 83° |
| 2026-04-30 19:33 | 73.17717 | 87.71745 | 35132 ft | 483 kts | 84° |
| 2026-04-30 19:33 | 73.18598 | 87.94769 | 35133 ft | 484 kts | 83° |
| 2026-04-30 19:34 | 73.19457 | 88.17821 | 35139 ft | 484 kts | 84° |
| 2026-04-30 19:35 | 73.20692 | 88.52348 | 35144 ft | 484 kts | 85° |
| 2026-04-30 19:35 | 73.21484 | 88.75479 | 35148 ft | 485 kts | 85° |
| 2026-04-30 19:36 | 73.22255 | 88.98655 | 35151 ft | 485 kts | 84° |
| 2026-04-30 19:36 | 73.23084 | 89.33369 | 35173 ft | 483 kts | 89° |
| 2026-04-30 19:37 | 73.23313 | 89.56612 | 35160 ft | 483 kts | 89° |
| 2026-04-30 19:37 | 73.23514 | 89.79880 | 35161 ft | 483 kts | 90° |
| 2026-04-30 19:38 | 73.23707 | 90.03143 | 35149 ft | 483 kts | 90° |
| 2026-04-30 19:38 | 73.23857 | 90.22488 | 35159 ft | 483 kts | 90° |
| 2026-04-30 19:39 | 73.24015 | 90.45781 | 35163 ft | 484 kts | 91° |
| 2026-04-30 19:39 | 73.24147 | 90.69118 | 35174 ft | 485 kts | 90° |
| 2026-04-30 19:40 | 73.24252 | 90.92475 | 35179 ft | 485 kts | 89° |
| 2026-04-30 19:40 | 73.24332 | 91.15858 | 35179 ft | 485 kts | 90° |
| 2026-04-30 19:41 | 73.24384 | 91.39257 | 35167 ft | 485 kts | 91° |
| 2026-04-30 19:41 | 73.24410 | 91.62679 | 35181 ft | 486 kts | 91° |
| 2026-04-30 19:42 | 73.24410 | 91.85970 | 35182 ft | 486 kts | 91° |
| 2026-04-30 19:42 | 73.24384 | 92.09411 | 35187 ft | 487 kts | 91° |
| 2026-04-30 19:43 | 73.24330 | 92.32889 | 35186 ft | 487 kts | 91° |
| 2026-04-30 19:44 | 73.24201 | 92.68121 | 35189 ft | 487 kts | 91° |
| 2026-04-30 19:44 | 73.24080 | 92.91581 | 35193 ft | 487 kts | 92° |
| 2026-04-30 19:45 | 73.23935 | 93.15099 | 35196 ft | 488 kts | 92° |
| 2026-04-30 19:45 | 73.23765 | 93.38293 | 35201 ft | 488 kts | 93° |
| 2026-04-30 19:46 | 73.23565 | 93.61807 | 35202 ft | 488 kts | 92° |
| 2026-04-30 19:46 | 73.23339 | 93.85318 | 35196 ft | 488 kts | 93° |
| 2026-04-30 19:47 | 73.23085 | 94.08845 | 35202 ft | 489 kts | 94° |
| 2026-04-30 19:47 | 73.22805 | 94.32402 | 35210 ft | 489 kts | 93° |
| 2026-04-30 19:48 | 73.22502 | 94.55799 | 35211 ft | 490 kts | 94° |
| 2026-04-30 19:48 | 73.22167 | 94.79379 | 35212 ft | 490 kts | 94° |
| 2026-04-30 19:49 | 73.21808 | 95.02927 | 35216 ft | 490 kts | 94° |
| 2026-04-30 19:49 | 73.21214 | 95.38282 | 35218 ft | 491 kts | 94° |
| 2026-04-30 19:50 | 73.20786 | 95.61872 | 35229 ft | 491 kts | 94° |
| 2026-04-30 19:50 | 73.20332 | 95.85465 | 35232 ft | 492 kts | 95° |
| 2026-04-30 19:51 | 73.19849 | 96.09046 | 35224 ft | 492 kts | 95° |
| 2026-04-30 19:51 | 73.19342 | 96.32481 | 35221 ft | 492 kts | 96° |
| 2026-04-30 19:52 | 73.18806 | 96.56047 | 35223 ft | 492 kts | 96° |
| 2026-04-30 19:52 | 73.18241 | 96.79649 | 35229 ft | 493 kts | 96° |
| 2026-04-30 19:53 | 73.17649 | 97.03258 | 35229 ft | 493 kts | 96° |
| 2026-04-30 19:53 | 73.17030 | 97.26868 | 35243 ft | 493 kts | 97° |
| 2026-04-30 19:54 | 73.16385 | 97.50423 | 35241 ft | 493 kts | 96° |
| 2026-04-30 19:54 | 73.15714 | 97.73973 | 35242 ft | 493 kts | 96° |
| 2026-04-30 19:55 | 73.15014 | 97.97512 | 35247 ft | 494 kts | 96° |
| 2026-04-30 19:55 | 73.14289 | 98.20954 | 35235 ft | 496 kts | 96° |
| 2026-04-30 19:56 | 73.13531 | 98.44617 | 35248 ft | 496 kts | 97° |
| 2026-04-30 19:56 | 73.12746 | 98.68253 | 35228 ft | 496 kts | 97° |
| 2026-04-30 19:57 | 73.11935 | 98.91829 | 35234 ft | 496 kts | 97° |
| 2026-04-30 19:57 | 73.11101 | 99.15275 | 35243 ft | 497 kts | 97° |
| 2026-04-30 19:58 | 73.10233 | 99.38878 | 35247 ft | 498 kts | 97° |
| 2026-04-30 19:58 | 73.09338 | 99.62497 | 35256 ft | 498 kts | 98° |
| 2026-04-30 19:59 | 73.08412 | 99.86151 | 35246 ft | 499 kts | 98° |
| 2026-04-30 20:00 | 73.06976 | 100.21516 | 35242 ft | 498 kts | 98° |
| 2026-04-30 20:00 | 73.05993 | 100.44882 | 35242 ft | 498 kts | 98° |
| 2026-04-30 20:01 | 73.04457 | 100.80114 | 35259 ft | 498 kts | 98° |
| 2026-04-30 20:01 | 73.03400 | 101.03564 | 35259 ft | 498 kts | 99° |
| 2026-04-30 20:02 | 73.01765 | 101.38669 | 35260 ft | 498 kts | 99° |
| 2026-04-30 20:03 | 73.00074 | 101.73634 | 35249 ft | 498 kts | 99° |
| 2026-04-30 20:03 | 72.98910 | 101.96969 | 35248 ft | 498 kts | 100° |
| 2026-04-30 20:04 | 72.97721 | 102.20257 | 35259 ft | 498 kts | 100° |
| 2026-04-30 20:05 | 72.95885 | 102.55160 | 35271 ft | 498 kts | 100° |
| 2026-04-30 20:05 | 72.93988 | 102.90035 | 35257 ft | 499 kts | 101° |
| 2026-04-30 20:06 | 72.92688 | 103.13277 | 35259 ft | 500 kts | 101° |
| 2026-04-30 20:06 | 72.91361 | 103.36495 | 35260 ft | 500 kts | 101° |
| 2026-04-30 20:07 | 72.90009 | 103.59647 | 35269 ft | 500 kts | 101° |
| 2026-04-30 20:08 | 72.87941 | 103.94171 | 35266 ft | 499 kts | 102° |
| 2026-04-30 20:08 | 72.86525 | 104.17229 | 35270 ft | 499 kts | 102° |
| 2026-04-30 20:09 | 72.85083 | 104.40232 | 35269 ft | 499 kts | 102° |
| 2026-04-30 20:09 | 72.82871 | 104.74684 | 35288 ft | 499 kts | 102° |
| 2026-04-30 20:10 | 72.80599 | 105.09066 | 35278 ft | 499 kts | 103° |
| 2026-04-30 20:11 | 72.78267 | 105.43379 | 35293 ft | 499 kts | 103° |
| 2026-04-30 20:11 | 72.76682 | 105.66182 | 35294 ft | 499 kts | 103° |
| 2026-04-30 20:12 | 72.74258 | 106.00294 | 35295 ft | 499 kts | 103° |
| 2026-04-30 20:13 | 72.72619 | 106.22859 | 35289 ft | 499 kts | 104° |
| 2026-04-30 20:13 | 72.70948 | 106.45475 | 35299 ft | 498 kts | 104° |
| 2026-04-30 20:14 | 72.69251 | 106.68060 | 35294 ft | 498 kts | 104° |
| 2026-04-30 20:14 | 72.67531 | 106.90578 | 35302 ft | 498 kts | 104° |
| 2026-04-30 20:15 | 72.65785 | 107.13053 | 35297 ft | 498 kts | 105° |
| 2026-04-30 20:15 | 72.64014 | 107.35484 | 35300 ft | 498 kts | 105° |
| 2026-04-30 20:16 | 72.62231 | 107.57717 | 35309 ft | 497 kts | 105° |
| 2026-04-30 20:16 | 72.60413 | 107.80022 | 35314 ft | 497 kts | 105° |
| 2026-04-30 20:17 | 72.58569 | 108.02312 | 35317 ft | 497 kts | 105° |
| 2026-04-30 20:17 | 72.56699 | 108.24558 | 35304 ft | 497 kts | 106° |
| 2026-04-30 20:18 | 72.54808 | 108.46717 | 35311 ft | 497 kts | 106° |
| 2026-04-30 20:18 | 72.52892 | 108.68838 | 35301 ft | 497 kts | 107° |
| 2026-04-30 20:19 | 72.50968 | 108.90734 | 35321 ft | 497 kts | 107° |
| 2026-04-30 20:19 | 72.48999 | 109.12805 | 35320 ft | 497 kts | 107° |
| 2026-04-30 20:20 | 72.47012 | 109.34769 | 35313 ft | 497 kts | 107° |
| 2026-04-30 20:20 | 72.45000 | 109.56689 | 35310 ft | 497 kts | 107° |
| 2026-04-30 20:21 | 72.42963 | 109.78571 | 35317 ft | 497 kts | 108° |
| 2026-04-30 20:21 | 72.40903 | 110.00384 | 35319 ft | 497 kts | 108° |
| 2026-04-30 20:22 | 72.38822 | 110.22132 | 35309 ft | 497 kts | 108° |
| 2026-04-30 20:22 | 72.36714 | 110.43851 | 35319 ft | 496 kts | 108° |
| 2026-04-30 20:23 | 72.34583 | 110.65518 | 35322 ft | 496 kts | 109° |
| 2026-04-30 20:23 | 72.32442 | 110.86996 | 35307 ft | 496 kts | 109° |
| 2026-04-30 20:24 | 72.30265 | 111.08557 | 35319 ft | 496 kts | 109° |
| 2026-04-30 20:24 | 72.28062 | 111.30078 | 35318 ft | 496 kts | 109° |
| 2026-04-30 20:25 | 72.24714 | 111.62275 | 35321 ft | 497 kts | 110° |
| 2026-04-30 20:26 | 72.21330 | 111.94190 | 35323 ft | 496 kts | 110° |
| 2026-04-30 20:26 | 72.18273 | 112.22557 | 35322 ft | 497 kts | 110° |
| 2026-04-30 20:27 | 72.13642 | 112.65074 | 35314 ft | 498 kts | 110° |
| 2026-04-30 20:28 | 72.08926 | 113.07442 | 35315 ft | 498 kts | 111° |
| 2026-04-30 20:30 | 72.02910 | 113.59987 | 35311 ft | 498 kts | 111° |
| 2026-04-30 20:31 | 71.95486 | 114.22706 | 35304 ft | 498 kts | 112° |
| 2026-04-30 20:32 | 71.89047 | 114.74396 | 35311 ft | 499 kts | 112° |
| 2026-04-30 20:33 | 71.85110 | 115.05375 | 35303 ft | 500 kts | 113° |
| 2026-04-30 20:34 | 71.81112 | 115.36322 | 35302 ft | 501 kts | 113° |
| 2026-04-30 20:35 | 71.77062 | 115.67151 | 35304 ft | 502 kts | 113° |
| 2026-04-30 20:35 | 71.72974 | 115.97762 | 35300 ft | 502 kts | 113° |
| 2026-04-30 20:36 | 71.70209 | 116.18195 | 35299 ft | 503 kts | 114° |
| 2026-04-30 20:37 | 71.66016 | 116.48763 | 35293 ft | 503 kts | 113° |
| 2026-04-30 20:37 | 71.63186 | 116.69120 | 35295 ft | 504 kts | 114° |
| 2026-04-30 20:38 | 71.60332 | 116.89429 | 35289 ft | 505 kts | 114° |
| 2026-04-30 20:38 | 71.57450 | 117.09727 | 35288 ft | 505 kts | 114° |
| 2026-04-30 20:39 | 71.53110 | 117.39914 | 35287 ft | 506 kts | 114° |
| 2026-04-30 20:40 | 71.48696 | 117.70141 | 35284 ft | 507 kts | 114° |
| 2026-04-30 20:40 | 71.45722 | 117.90237 | 35284 ft | 507 kts | 114° |
| 2026-04-30 20:41 | 71.41216 | 118.20314 | 35278 ft | 508 kts | 115° |
| 2026-04-30 20:41 | 71.38187 | 118.40287 | 35283 ft | 508 kts | 114° |
| 2026-04-30 20:42 | 71.35130 | 118.60238 | 35269 ft | 509 kts | 115° |
| 2026-04-30 20:43 | 71.30498 | 118.90081 | 35279 ft | 509 kts | 115° |
| 2026-04-30 20:43 | 71.27398 | 119.09811 | 35267 ft | 510 kts | 115° |
| 2026-04-30 20:44 | 71.22684 | 119.39480 | 35268 ft | 510 kts | 115° |
| 2026-04-30 20:45 | 71.16329 | 119.78925 | 35255 ft | 511 kts | 115° |
| 2026-04-30 20:45 | 71.13120 | 119.98563 | 35245 ft | 512 kts | 115° |
| 2026-04-30 20:46 | 71.06639 | 120.37637 | 35255 ft | 512 kts | 116° |
| 2026-04-30 20:47 | 71.01668 | 120.66760 | 35245 ft | 513 kts | 116° |
| 2026-04-30 20:48 | 70.96644 | 120.95785 | 35238 ft | 514 kts | 116° |
| 2026-04-30 20:48 | 70.93295 | 121.14936 | 35227 ft | 514 kts | 116° |
| 2026-04-30 20:49 | 70.89897 | 121.34185 | 35250 ft | 514 kts | 116° |
| 2026-04-30 20:50 | 70.84763 | 121.62936 | 35219 ft | 515 kts | 116° |
| 2026-04-30 20:50 | 70.81312 | 121.82037 | 35222 ft | 515 kts | 116° |
| 2026-04-30 20:51 | 70.77845 | 122.01054 | 35206 ft | 515 kts | 117° |
| 2026-04-30 20:51 | 70.72604 | 122.29494 | 35212 ft | 515 kts | 117° |
| 2026-04-30 20:52 | 70.69081 | 122.48348 | 35199 ft | 515 kts | 117° |
| 2026-04-30 20:53 | 70.63740 | 122.76509 | 35197 ft | 515 kts | 117° |
| 2026-04-30 20:53 | 70.60182 | 122.95082 | 35200 ft | 515 kts | 117° |
| 2026-04-30 20:54 | 70.54774 | 123.23013 | 35194 ft | 515 kts | 118° |
| 2026-04-30 20:55 | 70.49325 | 123.50803 | 35193 ft | 515 kts | 118° |
| 2026-04-30 20:55 | 70.45702 | 123.69309 | 35184 ft | 516 kts | 117° |
| 2026-04-30 20:56 | 70.40289 | 123.96930 | 35188 ft | 515 kts | 118° |
| 2026-04-30 20:57 | 70.34809 | 124.24467 | 35190 ft | 516 kts | 118° |
| 2026-04-30 20:57 | 70.31124 | 124.42765 | 35181 ft | 517 kts | 118° |
| 2026-04-30 20:58 | 70.25555 | 124.70123 | 35175 ft | 517 kts | 118° |
| 2026-04-30 20:58 | 70.21819 | 124.88283 | 35163 ft | 517 kts | 118° |
| 2026-04-30 20:59 | 70.16197 | 125.15323 | 35170 ft | 518 kts | 118° |
| 2026-04-30 21:00 | 70.08602 | 125.51311 | 35152 ft | 518 kts | 118° |
| 2026-04-30 21:01 | 70.02857 | 125.78141 | 35138 ft | 518 kts | 119° |
| 2026-04-30 21:02 | 69.97067 | 126.04841 | 35138 ft | 519 kts | 119° |
| 2026-04-30 21:02 | 69.93180 | 126.22581 | 35128 ft | 519 kts | 119° |
| 2026-04-30 21:03 | 69.89283 | 126.40239 | 35120 ft | 518 kts | 119° |
| 2026-04-30 21:03 | 69.85350 | 126.57807 | 35115 ft | 518 kts | 120° |
| 2026-04-30 21:04 | 69.82057 | 126.72287 | 35107 ft | 518 kts | 120° |
| 2026-04-30 21:04 | 69.75430 | 127.01144 | 35091 ft | 518 kts | 120° |
| 2026-04-30 21:05 | 69.71431 | 127.18397 | 35101 ft | 517 kts | 120° |
| 2026-04-30 21:05 | 69.67420 | 127.35574 | 35085 ft | 517 kts | 120° |
| 2026-04-30 21:06 | 69.64068 | 127.49822 | 35088 ft | 517 kts | 121° |
| 2026-04-30 21:06 | 69.59341 | 127.69752 | 35097 ft | 517 kts | 121° |
| 2026-04-30 21:07 | 69.55278 | 127.86737 | 35087 ft | 517 kts | 121° |
| 2026-04-30 21:07 | 69.51889 | 128.00812 | 35066 ft | 516 kts | 121° |
| 2026-04-30 21:08 | 69.47131 | 128.20408 | 35072 ft | 516 kts | 121° |
| 2026-04-30 21:08 | 69.43027 | 128.37166 | 35052 ft | 516 kts | 121° |
| 2026-04-30 21:09 | 69.38913 | 128.53836 | 35076 ft | 515 kts | 122° |
| 2026-04-30 21:09 | 69.34783 | 128.70447 | 35081 ft | 515 kts | 122° |
| 2026-04-30 21:10 | 69.30639 | 128.86992 | 35086 ft | 515 kts | 122° |
| 2026-04-30 21:10 | 69.26480 | 129.03478 | 35087 ft | 515 kts | 122° |
| 2026-04-30 21:11 | 69.22335 | 129.19934 | 35091 ft | 515 kts | 122° |
| 2026-04-30 21:11 | 69.18188 | 129.36382 | 35103 ft | 515 kts | 122° |
| 2026-04-30 21:12 | 69.14025 | 129.52766 | 35100 ft | 515 kts | 122° |
| 2026-04-30 21:12 | 69.10556 | 129.66298 | 35110 ft | 514 kts | 122° |
| 2026-04-30 21:13 | 69.06367 | 129.82519 | 35110 ft | 514 kts | 122° |
| 2026-04-30 21:13 | 69.02161 | 129.98686 | 35125 ft | 514 kts | 123° |
| 2026-04-30 21:14 | 68.97260 | 130.17373 | 35118 ft | 514 kts | 123° |
| 2026-04-30 21:14 | 68.93715 | 130.30791 | 35144 ft | 513 kts | 123° |
| 2026-04-30 21:15 | 68.89501 | 130.46638 | 35142 ft | 513 kts | 123° |
| 2026-04-30 21:15 | 68.85248 | 130.62514 | 35167 ft | 513 kts | 123° |
| 2026-04-30 21:16 | 68.80981 | 130.78325 | 35162 ft | 513 kts | 123° |
| 2026-04-30 21:16 | 68.76690 | 130.94107 | 35175 ft | 513 kts | 124° |
| 2026-04-30 21:17 | 68.72412 | 131.09733 | 35173 ft | 513 kts | 124° |
| 2026-04-30 21:17 | 68.68101 | 131.25361 | 35166 ft | 513 kts | 124° |
| 2026-04-30 21:18 | 68.63777 | 131.40925 | 35158 ft | 512 kts | 124° |
| 2026-04-30 21:18 | 68.59441 | 131.56424 | 35168 ft | 513 kts | 124° |
| 2026-04-30 21:19 | 68.55078 | 131.71903 | 35136 ft | 513 kts | 124° |
| 2026-04-30 21:19 | 68.50705 | 131.87316 | 35131 ft | 513 kts | 125° |
| 2026-04-30 21:20 | 68.46320 | 132.02656 | 35136 ft | 513 kts | 125° |
| 2026-04-30 21:20 | 68.41950 | 132.17836 | 35132 ft | 512 kts | 125° |
| 2026-04-30 21:21 | 68.37545 | 132.33035 | 35141 ft | 513 kts | 125° |
| 2026-04-30 21:22 | 68.30897 | 132.55770 | 35126 ft | 514 kts | 126° |
| 2026-04-30 21:23 | 68.21970 | 132.85921 | 35124 ft | 514 kts | 126° |
| 2026-04-30 21:23 | 68.15225 | 133.08431 | 35122 ft | 515 kts | 126° |
| 2026-04-30 21:24 | 68.10715 | 133.23363 | 35101 ft | 515 kts | 126° |
| 2026-04-30 21:24 | 68.06159 | 133.38012 | 35108 ft | 515 kts | 127° |
| 2026-04-30 21:25 | 67.99202 | 133.59927 | 35091 ft | 515 kts | 127° |
| 2026-04-30 21:26 | 67.92277 | 133.81784 | 35087 ft | 514 kts | 127° |
| 2026-04-30 21:27 | 67.85442 | 134.03716 | 35059 ft | 514 kts | 127° |
| 2026-04-30 21:27 | 67.80870 | 134.18238 | 35068 ft | 513 kts | 127° |
| 2026-04-30 21:28 | 67.73972 | 134.39904 | 35050 ft | 513 kts | 127° |
| 2026-04-30 21:29 | 67.67080 | 134.61347 | 35039 ft | 513 kts | 128° |
| 2026-04-30 21:30 | 67.55792 | 134.97515 | 35026 ft | 512 kts | 126° |
| 2026-04-30 21:31 | 67.44569 | 135.33593 | 35013 ft | 514 kts | 127° |
| 2026-04-30 21:32 | 67.37747 | 135.55139 | 35001 ft | 514 kts | 127° |
| 2026-04-30 21:32 | 67.33176 | 135.69466 | 34979 ft | 515 kts | 127° |
| 2026-04-30 21:33 | 67.26292 | 135.90866 | 35766 ft | 512 kts | 128° |
| 2026-04-30 21:33 | 67.24012 | 135.97906 | 36136 ft | 509 kts | 128° |
| 2026-04-30 21:34 | 67.21736 | 136.04921 | 36471 ft | 508 kts | 128° |
| 2026-04-30 21:34 | 67.17198 | 136.18872 | 36919 ft | 509 kts | 128° |
| 2026-04-30 21:34 | 67.14934 | 136.25898 | 36947 ft | 511 kts | 127° |
| 2026-04-30 21:35 | 67.10408 | 136.39962 | 36969 ft | 509 kts | 128° |
| 2026-04-30 21:35 | 67.05930 | 136.53774 | 36971 ft | 505 kts | 128° |
| 2026-04-30 21:36 | 67.01430 | 136.67541 | 36973 ft | 503 kts | 128° |
| 2026-04-30 21:37 | 66.92401 | 136.94882 | 36968 ft | 503 kts | 128° |
| 2026-04-30 21:37 | 66.87871 | 137.08475 | 36956 ft | 504 kts | 128° |
| 2026-04-30 21:38 | 66.83314 | 137.22061 | 36958 ft | 506 kts | 129° |
| 2026-04-30 21:38 | 66.78758 | 137.35557 | 36953 ft | 507 kts | 129° |
| 2026-04-30 21:39 | 66.74153 | 137.49124 | 36954 ft | 508 kts | 129° |
| 2026-04-30 21:39 | 66.69532 | 137.62671 | 36944 ft | 509 kts | 129° |
| 2026-04-30 21:40 | 66.64905 | 137.76192 | 36947 ft | 509 kts | 129° |
| 2026-04-30 21:40 | 66.60271 | 137.89655 | 36931 ft | 508 kts | 129° |
| 2026-04-30 21:41 | 66.55657 | 138.02968 | 36947 ft | 507 kts | 130° |
| 2026-04-30 21:41 | 66.51006 | 138.16301 | 36919 ft | 507 kts | 130° |
| 2026-04-30 21:42 | 66.46358 | 138.29549 | 36920 ft | 506 kts | 130° |
| 2026-04-30 21:42 | 66.41703 | 138.42734 | 36921 ft | 505 kts | 130° |
| 2026-04-30 21:43 | 66.37045 | 138.55843 | 36917 ft | 505 kts | 130° |
| 2026-04-30 21:43 | 66.32373 | 138.68916 | 36909 ft | 505 kts | 130° |
| 2026-04-30 21:44 | 66.27694 | 138.81930 | 36910 ft | 505 kts | 130° |
| 2026-04-30 21:44 | 66.22999 | 138.94908 | 36929 ft | 505 kts | 130° |
| 2026-04-30 21:45 | 66.18289 | 139.07855 | 36909 ft | 506 kts | 131° |
| 2026-04-30 21:45 | 66.13597 | 139.20648 | 36906 ft | 506 kts | 131° |
| 2026-04-30 21:46 | 66.08828 | 139.33431 | 36906 ft | 506 kts | 131° |
| 2026-04-30 21:46 | 66.04046 | 139.46144 | 36911 ft | 506 kts | 131° |
| 2026-04-30 21:47 | 65.99254 | 139.58824 | 36904 ft | 506 kts | 131° |
| 2026-04-30 21:47 | 65.94460 | 139.71449 | 36906 ft | 505 kts | 132° |
| 2026-04-30 21:48 | 65.89657 | 139.84029 | 36897 ft | 505 kts | 132° |
| 2026-04-30 21:48 | 65.84849 | 139.96546 | 36899 ft | 505 kts | 132° |
| 2026-04-30 21:49 | 65.80029 | 140.09019 | 36901 ft | 505 kts | 132° |
| 2026-04-30 21:49 | 65.75231 | 140.21361 | 36901 ft | 505 kts | 132° |
| 2026-04-30 21:50 | 65.70394 | 140.33735 | 36897 ft | 505 kts | 133° |
| 2026-04-30 21:50 | 65.65549 | 140.46055 | 36891 ft | 505 kts | 133° |
| 2026-04-30 21:51 | 65.60688 | 140.58344 | 36894 ft | 505 kts | 133° |
| 2026-04-30 21:51 | 65.55808 | 140.70611 | 36888 ft | 505 kts | 133° |
| 2026-04-30 21:52 | 65.50961 | 140.82725 | 36896 ft | 505 kts | 133° |
| 2026-04-30 21:52 | 65.46077 | 140.94864 | 36894 ft | 505 kts | 133° |
| 2026-04-30 21:53 | 65.41179 | 141.06965 | 36897 ft | 505 kts | 134° |
| 2026-04-30 21:53 | 65.36274 | 141.19015 | 36893 ft | 505 kts | 134° |
| 2026-04-30 21:54 | 65.31359 | 141.31029 | 36889 ft | 505 kts | 134° |
| 2026-04-30 21:54 | 65.26440 | 141.42993 | 36885 ft | 504 kts | 134° |
| 2026-04-30 21:55 | 65.21514 | 141.54939 | 36888 ft | 504 kts | 134° |
| 2026-04-30 21:55 | 65.16583 | 141.66832 | 36873 ft | 504 kts | 134° |
| 2026-04-30 21:56 | 65.11679 | 141.78587 | 36875 ft | 504 kts | 134° |
| 2026-04-30 21:56 | 65.06736 | 141.90372 | 36872 ft | 504 kts | 134° |
| 2026-04-30 21:57 | 65.01780 | 142.02123 | 36871 ft | 504 kts | 134° |
| 2026-04-30 21:57 | 64.96813 | 142.13845 | 36879 ft | 504 kts | 134° |
| 2026-04-30 21:58 | 64.92687 | 142.23559 | 36869 ft | 504 kts | 134° |
| 2026-04-30 21:58 | 64.87714 | 142.35217 | 36857 ft | 504 kts | 135° |
| 2026-04-30 21:59 | 64.81899 | 142.48761 | 36853 ft | 503 kts | 135° |
| 2026-04-30 22:00 | 64.75258 | 142.64118 | 36853 ft | 503 kts | 135° |
| 2026-04-30 22:00 | 64.66951 | 142.83169 | 36862 ft | 503 kts | 135° |
| 2026-04-30 22:01 | 64.61942 | 142.94572 | 36862 ft | 503 kts | 135° |
| 2026-04-30 22:01 | 64.56917 | 143.05959 | 36860 ft | 503 kts | 135° |
| 2026-04-30 22:02 | 64.51763 | 143.16926 | 36864 ft | 502 kts | 139° |
| 2026-04-30 22:02 | 64.46440 | 143.27447 | 36857 ft | 503 kts | 139° |
| 2026-04-30 22:03 | 64.41117 | 143.37942 | 36853 ft | 502 kts | 139° |
| 2026-04-30 22:03 | 64.35799 | 143.48428 | 36857 ft | 502 kts | 139° |
| 2026-04-30 22:04 | 64.31377 | 143.57114 | 36845 ft | 502 kts | 139° |
| 2026-04-30 22:05 | 64.23383 | 143.72711 | 36847 ft | 502 kts | 140° |
| 2026-04-30 22:05 | 64.18041 | 143.83035 | 36849 ft | 501 kts | 140° |
| 2026-04-30 22:06 | 64.12695 | 143.93315 | 36854 ft | 501 kts | 140° |
| 2026-04-30 22:06 | 64.04710 | 144.08594 | 36857 ft | 501 kts | 140° |
| 2026-04-30 22:07 | 63.99357 | 144.18839 | 36848 ft | 501 kts | 140° |
| 2026-04-30 22:07 | 63.94005 | 144.29048 | 36857 ft | 501 kts | 140° |
| 2026-04-30 22:08 | 63.88653 | 144.39191 | 36854 ft | 501 kts | 140° |
| 2026-04-30 22:08 | 63.83291 | 144.49297 | 36863 ft | 501 kts | 140° |
| 2026-04-30 22:09 | 63.77913 | 144.59380 | 36853 ft | 502 kts | 140° |
| 2026-04-30 22:09 | 63.72531 | 144.69420 | 36854 ft | 501 kts | 140° |
| 2026-04-30 22:10 | 63.67149 | 144.79410 | 36849 ft | 501 kts | 140° |
| 2026-04-30 22:10 | 63.61793 | 144.89300 | 36851 ft | 501 kts | 140° |
| 2026-04-30 22:11 | 63.53698 | 145.04153 | 36851 ft | 501 kts | 141° |
| 2026-04-30 22:12 | 63.48297 | 145.14003 | 36854 ft | 500 kts | 141° |
| 2026-04-30 22:12 | 63.42889 | 145.23814 | 36849 ft | 500 kts | 141° |
| 2026-04-30 22:13 | 63.37473 | 145.33589 | 36852 ft | 500 kts | 141° |
| 2026-04-30 22:13 | 63.32085 | 145.43271 | 36850 ft | 500 kts | 141° |
| 2026-04-30 22:14 | 63.26656 | 145.52931 | 36853 ft | 500 kts | 141° |
| 2026-04-30 22:14 | 63.21208 | 145.62551 | 36851 ft | 500 kts | 141° |
| 2026-04-30 22:15 | 63.15759 | 145.72133 | 36841 ft | 500 kts | 141° |
| 2026-04-30 22:15 | 63.10309 | 145.81674 | 36844 ft | 500 kts | 141° |
| 2026-04-30 22:16 | 63.04847 | 145.91193 | 36840 ft | 500 kts | 142° |
| 2026-04-30 22:17 | 62.93946 | 146.10059 | 36856 ft | 500 kts | 142° |
| 2026-04-30 22:17 | 62.85724 | 146.24171 | 36851 ft | 500 kts | 142° |
| 2026-04-30 22:18 | 62.77486 | 146.38204 | 36851 ft | 500 kts | 142° |
| 2026-04-30 22:19 | 62.69260 | 146.52120 | 36854 ft | 501 kts | 142° |
| 2026-04-30 22:20 | 62.60988 | 146.66037 | 36853 ft | 501 kts | 142° |
| 2026-04-30 22:20 | 62.52718 | 146.79900 | 36854 ft | 501 kts | 142° |
| 2026-04-30 22:21 | 62.47193 | 146.89104 | 36857 ft | 501 kts | 142° |
| 2026-04-30 22:21 | 62.41659 | 146.98273 | 36854 ft | 501 kts | 142° |
| 2026-04-30 22:22 | 62.36158 | 147.07343 | 36855 ft | 501 kts | 142° |
| 2026-04-30 22:22 | 62.30611 | 147.16447 | 36858 ft | 501 kts | 142° |
| 2026-04-30 22:23 | 62.25057 | 147.25521 | 36858 ft | 501 kts | 143° |
| 2026-04-30 22:23 | 62.19502 | 147.34552 | 36863 ft | 501 kts | 143° |
| 2026-04-30 22:24 | 62.13938 | 147.43553 | 36867 ft | 501 kts | 143° |
| 2026-04-30 22:24 | 62.08366 | 147.52526 | 36858 ft | 501 kts | 143° |
| 2026-04-30 22:25 | 62.02786 | 147.61470 | 36860 ft | 501 kts | 143° |
| 2026-04-30 22:25 | 61.97202 | 147.70379 | 36869 ft | 502 kts | 143° |
| 2026-04-30 22:26 | 61.88844 | 147.83635 | 36869 ft | 502 kts | 143° |
| 2026-04-30 22:27 | 61.83240 | 147.92472 | 36868 ft | 502 kts | 143° |
| 2026-04-30 22:27 | 61.74815 | 148.05678 | 36875 ft | 502 kts | 143° |
| 2026-04-30 22:28 | 61.66374 | 148.18817 | 36875 ft | 503 kts | 143° |
| 2026-04-30 22:29 | 61.55140 | 148.36165 | 36880 ft | 503 kts | 143° |
| 2026-04-30 22:31 | 61.35311 | 148.66282 | 36889 ft | 502 kts | 144° |
| 2026-04-30 22:32 | 61.21120 | 148.87519 | 36875 ft | 503 kts | 144° |
| 2026-04-30 22:33 | 61.12542 | 149.00246 | 35749 ft | 513 kts | 144° |
| 2026-04-30 22:33 | 61.06691 | 149.08888 | 34251 ft | 522 kts | 144° |
| 2026-04-30 22:34 | 60.97876 | 149.21833 | 32531 ft | 514 kts | 144° |
| 2026-04-30 22:35 | 60.92130 | 149.30223 | 31986 ft | 506 kts | 144° |
| 2026-04-30 22:36 | 60.80664 | 149.46854 | 30227 ft | 506 kts | 144° |
| 2026-04-30 22:36 | 60.77793 | 149.50993 | 29895 ft | 503 kts | 144° |
| 2026-04-30 22:37 | 60.69302 | 149.63183 | 28941 ft | 492 kts | 144° |
| 2026-04-30 22:37 | 60.66508 | 149.67177 | 28592 ft | 490 kts | 144° |
| 2026-04-30 22:37 | 60.60971 | 149.75068 | 27930 ft | 486 kts | 144° |
| 2026-04-30 22:38 | 60.55456 | 149.82893 | 27314 ft | 481 kts | 144° |
| 2026-04-30 22:38 | 60.49984 | 149.90624 | 26720 ft | 477 kts | 144° |
| 2026-04-30 22:39 | 60.47265 | 149.94455 | 26410 ft | 475 kts | 144° |
| 2026-04-30 22:39 | 60.40731 | 150.08699 | 25300 ft | 461 kts | 116° |
| 2026-04-30 22:40 | 60.35989 | 150.25602 | 24346 ft | 459 kts | 118° |
| 2026-04-30 22:41 | 60.31112 | 150.42081 | 22405 ft | 445 kts | 119° |
| 2026-04-30 22:41 | 60.28022 | 150.52447 | 20770 ft | 421 kts | 119° |
| 2026-04-30 22:42 | 60.22211 | 150.71885 | 17688 ft | 388 kts | 119° |
| 2026-04-30 22:43 | 60.19486 | 150.80938 | 16034 ft | 369 kts | 120° |
| 2026-04-30 22:43 | 60.16885 | 150.89549 | 14470 ft | 353 kts | 120° |
| 2026-04-30 22:44 | 60.14386 | 150.97811 | 12903 ft | 339 kts | 120° |
| 2026-04-30 22:45 | 60.09777 | 151.12949 | 9978 ft | 298 kts | 120° |
| 2026-04-30 22:45 | 60.07684 | 151.19800 | 8669 ft | 282 kts | 120° |
| 2026-04-30 22:46 | 60.05700 | 151.26262 | 7524 ft | 263 kts | 121° |
| 2026-04-30 22:47 | 60.00098 | 151.31932 | 6591 ft | 259 kts | 205° |
| 2026-04-30 22:47 | 59.96896 | 151.29230 | 6210 ft | 235 kts | 204° |
| 2026-04-30 22:48 | 59.93834 | 151.26691 | 6263 ft | 241 kts | 205° |
| 2026-04-30 22:49 | 59.89973 | 151.21129 | 5261 ft | 219 kts | 252° |
| 2026-04-30 22:49 | 59.89911 | 151.12414 | 3974 ft | 202 kts | 274° |
| 2026-04-30 22:50 | 59.90269 | 151.01967 | 3614 ft | 169 kts | 273° |
| 2026-04-30 22:51 | 59.90380 | 150.97292 | 3122 ft | 165 kts | 273° |
| 2026-04-30 22:51 | 59.90512 | 150.92929 | 2293 ft | 153 kts | 273° |
| 2026-04-30 22:52 | 59.90575 | 150.90812 | 2028 ft | 153 kts | 273° |
| 2026-04-30 22:52 | 59.90683 | 150.86588 | 1633 ft | 154 kts | 272° |
| 2026-04-30 22:53 | 59.90817 | 150.82352 | 1270 ft | 151 kts | 273° |
| 2026-04-30 22:53 | 59.90925 | 150.78126 | 932 ft | 154 kts | 272° |
| 2026-04-30 22:53 | 59.90989 | 150.75981 | 729 ft | 155 kts | 272° |
| 2026-04-30 22:54 | 59.91098 | 150.72046 | 590 ft | 109 kts | 273° |
| 2026-04-30 22:55 | 59.91154 | 150.69918 | 588 ft | 34 kts | 273° |
| 2026-04-30 22:55 | 59.91185 | 150.69175 | 589 ft | 11 kts | 287° |
| 2026-04-30 22:56 | 59.91192 | 150.69021 | 588 ft | 4 kts | 173° |
| 2026-04-30 22:56 | 59.91172 | 150.69337 | 590 ft | 19 kts | 92° |
| 2026-04-30 22:57 | 59.91149 | 150.70123 | 585 ft | 35 kts | 92° |
| 2026-04-30 22:57 | 59.91125 | 150.71007 | 590 ft | 25 kts | 92° |
| 2026-04-30 22:58 | 59.91113 | 150.71437 | 589 ft | 16 kts | 94° |
| 2026-04-30 22:59 | 59.91088 | 150.72394 | 590 ft | 21 kts | 95° |
| 2026-04-30 22:59 | 59.91138 | 150.73071 | 589 ft | 14 kts | 52° |